sensor_id;sensor_type;location;lat;lon;timestamp;pressure;altitude;pressure_sealevel;temperature;humidity
53932;BME280;39844;52.496;13.482;2023-03-23T00:00:30;100390.63;;;11.62;72.98
53932;BME280;39844;52.496;13.482;2023-03-23T00:02:55;100397.66;;;11.60;73.21
53932;BME280;39844;52.496;13.482;2023-03-23T00:05:21;100382.81;;;11.56;73.15
53932;BME280;39844;52.496;13.482;2023-03-23T00:07:46;100385.53;;;11.51;73.79
53932;BME280;39844;52.496;13.482;2023-03-23T00:10:11;100377.66;;;11.47;73.50
53932;BME280;39844;52.496;13.482;2023-03-23T00:12:37;100375.13;;;11.43;73.45
53932;BME280;39844;52.496;13.482;2023-03-23T00:15:05;100364.63;;;11.40;73.66
53932;BME280;39844;52.496;13.482;2023-03-23T00:17:31;100364.66;;;11.37;73.57
53932;BME280;39844;52.496;13.482;2023-03-23T00:19:57;100361.19;;;11.35;73.93
53932;BME280;39844;52.496;13.482;2023-03-23T00:22:22;100362.09;;;11.33;74.05
53932;BME280;39844;52.496;13.482;2023-03-23T00:24:48;100355.13;;;11.29;73.84
53932;BME280;39844;52.496;13.482;2023-03-23T00:27:13;100363.91;;;11.26;74.45
53932;BME280;39844;52.496;13.482;2023-03-23T00:29:39;100366.63;;;11.23;74.60
53932;BME280;39844;52.496;13.482;2023-03-23T00:32:04;100354.38;;;11.19;74.46
53932;BME280;39844;52.496;13.482;2023-03-23T00:34:29;100350.06;;;11.15;74.80
53932;BME280;39844;52.496;13.482;2023-03-23T00:36:55;100352.69;;;11.14;75.09
53932;BME280;39844;52.496;13.482;2023-03-23T00:39:20;100349.22;;;11.13;74.85
53932;BME280;39844;52.496;13.482;2023-03-23T00:41:46;100347.47;;;11.12;74.96
53932;BME280;39844;52.496;13.482;2023-03-23T00:44:12;100351.00;;;11.10;75.30
53932;BME280;39844;52.496;13.482;2023-03-23T00:46:37;100348.41;;;11.08;75.05
53932;BME280;39844;52.496;13.482;2023-03-23T00:49:02;100337.91;;;11.08;75.12
53932;BME280;39844;52.496;13.482;2023-03-23T00:51:28;100333.56;;;11.04;75.20
53932;BME280;39844;52.496;13.482;2023-03-23T00:53:53;100336.22;;;11.01;75.17
53932;BME280;39844;52.496;13.482;2023-03-23T00:56:18;100335.41;;;10.98;75.42
53932;BME280;39844;52.496;13.482;2023-03-23T00:58:44;100329.31;;;10.96;75.55
53932;BME280;39844;52.496;13.482;2023-03-23T01:01:09;100330.22;;;10.92;75.74
53932;BME280;39844;52.496;13.482;2023-03-23T01:03:35;100317.13;;;10.89;75.63
53932;BME280;39844;52.496;13.482;2023-03-23T01:06:05;100320.66;;;10.86;75.66
53932;BME280;39844;52.496;13.482;2023-03-23T01:08:31;100316.31;;;10.82;76.00
53932;BME280;39844;52.496;13.482;2023-03-23T01:11:05;100319.84;;;10.78;76.11
53932;BME280;39844;52.496;13.482;2023-03-23T01:13:31;100318.13;;;10.75;76.09
53932;BME280;39844;52.496;13.482;2023-03-23T01:15:56;100314.69;;;10.72;76.68
53932;BME280;39844;52.496;13.482;2023-03-23T01:18:22;100314.69;;;10.72;76.42
53932;BME280;39844;52.496;13.482;2023-03-23T01:20:47;100304.22;;;10.69;76.24
53932;BME280;39844;52.496;13.482;2023-03-23T01:23:12;100303.38;;;10.67;76.46
53932;BME280;39844;52.496;13.482;2023-03-23T01:25:38;100308.66;;;10.64;76.52
53932;BME280;39844;52.496;13.482;2023-03-23T01:28:03;100306.94;;;10.61;76.59
53932;BME280;39844;52.496;13.482;2023-03-23T01:30:28;100302.63;;;10.56;76.46
53932;BME280;39844;52.496;13.482;2023-03-23T01:32:54;100293.91;;;10.54;76.97
53932;BME280;39844;52.496;13.482;2023-03-23T01:35:20;100299.16;;;10.51;77.00
53932;BME280;39844;52.496;13.482;2023-03-23T01:37:45;100289.56;;;10.48;77.35
53932;BME280;39844;52.496;13.482;2023-03-23T01:40:11;100287.00;;;10.44;77.49
53932;BME280;39844;52.496;13.482;2023-03-23T01:42:38;100291.38;;;10.43;77.60
53932;BME280;39844;52.496;13.482;2023-03-23T01:47:48;100287.06;;;10.39;77.75
53932;BME280;39844;52.496;13.482;2023-03-23T01:50:14;100285.34;;;10.37;77.81
53932;BME280;39844;52.496;13.482;2023-03-23T01:52:40;100291.50;;;10.34;78.22
53932;BME280;39844;52.496;13.482;2023-03-23T01:55:06;100287.13;;;10.33;78.41
53932;BME280;39844;52.496;13.482;2023-03-23T01:57:31;100282.72;;;10.35;78.48
53932;BME280;39844;52.496;13.482;2023-03-23T01:59:59;100276.56;;;10.38;78.40
53932;BME280;39844;52.496;13.482;2023-03-23T02:02:27;100271.28;;;10.41;78.01
53932;BME280;39844;52.496;13.482;2023-03-23T02:04:55;100276.50;;;10.47;78.04
53932;BME280;39844;52.496;13.482;2023-03-23T02:07:24;100278.19;;;10.51;78.10
53932;BME280;39844;52.496;13.482;2023-03-23T02:09:51;100274.66;;;10.53;77.86
53932;BME280;39844;52.496;13.482;2023-03-23T02:12:16;100272.91;;;10.54;78.09
53932;BME280;39844;52.496;13.482;2023-03-23T02:14:41;100269.41;;;10.53;77.71
53932;BME280;39844;52.496;13.482;2023-03-23T02:20:18;100266.78;;;10.53;77.63
53932;BME280;39844;52.496;13.482;2023-03-23T02:34:22;100256.13;;;10.67;77.26
53932;BME280;39844;52.496;13.482;2023-03-23T02:37:04;100258.72;;;10.70;77.19
53932;BME280;39844;52.496;13.482;2023-03-23T02:39:49;100255.16;;;10.74;76.55
53932;BME280;39844;52.496;13.482;2023-03-23T02:42:20;100254.19;;;10.81;76.45
53932;BME280;39844;52.496;13.482;2023-03-23T02:44:47;100255.03;;;10.83;76.12
53932;BME280;39844;52.496;13.482;2023-03-23T02:47:19;100268.97;;;10.88;75.96
53932;BME280;39844;52.496;13.482;2023-03-23T02:49:48;100271.53;;;10.94;75.65
53932;BME280;39844;52.496;13.482;2023-03-23T02:52:19;100261.88;;;10.98;75.67
53932;BME280;39844;52.496;13.482;2023-03-23T02:54:47;100265.34;;;11.00;76.25
53932;BME280;39844;52.496;13.482;2023-03-23T02:57:13;100265.31;;;11.01;75.93
53932;BME280;39844;52.496;13.482;2023-03-23T02:59:39;100270.53;;;11.04;76.17
53932;BME280;39844;52.496;13.482;2023-03-23T03:02:22;100260.00;;;11.07;76.24
53932;BME280;39844;52.496;13.482;2023-03-23T03:04:58;100262.59;;;11.09;76.54
53932;BME280;39844;52.496;13.482;2023-03-23T03:13:19;100252.94;;;11.11;76.27
53932;BME280;39844;52.496;13.482;2023-03-23T03:18:31;100242.44;;;11.11;77.24
53932;BME280;39844;52.496;13.482;2023-03-23T03:21:03;100245.91;;;11.11;76.86
53932;BME280;39844;52.496;13.482;2023-03-23T03:23:31;100237.16;;;11.12;76.46
53932;BME280;39844;52.496;13.482;2023-03-23T03:25:58;100241.53;;;11.13;76.50
53932;BME280;39844;52.496;13.482;2023-03-23T03:28:25;100238.84;;;11.16;76.42
53932;BME280;39844;52.496;13.482;2023-03-23T03:30:54;100239.72;;;11.18;75.62
53932;BME280;39844;52.496;13.482;2023-03-23T03:33:21;100243.19;;;11.20;75.75
53932;BME280;39844;52.496;13.482;2023-03-23T03:35:48;100241.44;;;11.21;75.91
53932;BME280;39844;52.496;13.482;2023-03-23T03:38:13;100249.28;;;11.22;75.96
53932;BME280;39844;52.496;13.482;2023-03-23T03:40:38;100253.63;;;11.25;75.80
53932;BME280;39844;52.496;13.482;2023-03-23T03:43:04;100240.47;;;11.25;75.42
53932;BME280;39844;52.496;13.482;2023-03-23T03:45:30;100239.59;;;11.26;75.40
53932;BME280;39844;52.496;13.482;2023-03-23T03:47:56;100243.97;;;11.25;75.65
53932;BME280;39844;52.496;13.482;2023-03-23T03:50:21;100238.72;;;11.25;75.50
53932;BME280;39844;52.496;13.482;2023-03-23T03:52:46;100238.69;;;11.27;75.94
53932;BME280;39844;52.496;13.482;2023-03-23T03:55:12;100236.06;;;11.27;76.57
53932;BME280;39844;52.496;13.482;2023-03-23T03:57:37;100231.72;;;11.24;77.11
53932;BME280;39844;52.496;13.482;2023-03-23T04:02:32;100227.41;;;11.20;77.16
53932;BME280;39844;52.496;13.482;2023-03-23T04:08:00;100240.56;;;11.19;77.33
53932;BME280;39844;52.496;13.482;2023-03-23T04:10:25;100239.72;;;11.18;77.31
53932;BME280;39844;52.496;13.482;2023-03-23T04:12:51;100235.34;;;11.17;77.12
53932;BME280;39844;52.496;13.482;2023-03-23T04:15:16;100234.47;;;11.17;76.95
53932;BME280;39844;52.496;13.482;2023-03-23T04:17:41;100233.59;;;11.16;76.88
53932;BME280;39844;52.496;13.482;2023-03-23T04:20:07;100225.69;;;11.16;77.22
53932;BME280;39844;52.496;13.482;2023-03-23T04:22:33;100221.34;;;11.15;78.56
53932;BME280;39844;52.496;13.482;2023-03-23T04:25:00;100233.66;;;11.13;79.27
53932;BME280;39844;52.496;13.482;2023-03-23T04:27:29;100235.44;;;11.10;79.99
53932;BME280;39844;52.496;13.482;2023-03-23T04:29:57;100237.25;;;11.05;80.13
53932;BME280;39844;52.496;13.482;2023-03-23T04:32:22;100222.41;;;11.02;80.61
53932;BME280;39844;52.496;13.482;2023-03-23T04:34:48;100221.56;;;11.00;81.29
53932;BME280;39844;52.496;13.482;2023-03-23T04:37:13;100218.09;;;10.98;80.93
53932;BME280;39844;52.496;13.482;2023-03-23T04:39:38;100221.63;;;10.97;81.10
53932;BME280;39844;52.496;13.482;2023-03-23T04:42:04;100214.63;;;10.96;80.86
53932;BME280;39844;52.496;13.482;2023-03-23T04:44:29;100211.16;;;10.94;80.77
53932;BME280;39844;52.496;13.482;2023-03-23T04:46:54;100223.44;;;10.92;80.82
53932;BME280;39844;52.496;13.482;2023-03-23T04:49:19;100220.78;;;10.94;81.24
53932;BME280;39844;52.496;13.482;2023-03-23T04:51:45;100240.94;;;10.93;81.74
53932;BME280;39844;52.496;13.482;2023-03-23T04:54:10;100244.47;;;10.91;82.31
53932;BME280;39844;52.496;13.482;2023-03-23T04:56:35;100241.84;;;10.91;82.45
53932;BME280;39844;52.496;13.482;2023-03-23T04:59:01;100241.84;;;10.89;81.87
53932;BME280;39844;52.496;13.482;2023-03-23T05:01:26;100254.09;;;10.90;81.44
53932;BME280;39844;52.496;13.482;2023-03-23T05:03:51;100257.56;;;10.92;80.93
53932;BME280;39844;52.496;13.482;2023-03-23T05:06:16;100263.63;;;10.97;81.00
53932;BME280;39844;52.496;13.482;2023-03-23T05:08:42;100267.09;;;10.99;80.86
53932;BME280;39844;52.496;13.482;2023-03-23T05:11:07;100258.34;;;11.00;81.22
53932;BME280;39844;52.496;13.482;2023-03-23T05:13:32;100249.56;;;11.01;81.76
53932;BME280;39844;52.496;13.482;2023-03-23T05:15:58;100253.09;;;11.00;82.00
53932;BME280;39844;52.496;13.482;2023-03-23T05:18:23;100252.22;;;11.00;82.62
53932;BME280;39844;52.496;13.482;2023-03-23T05:20:49;100248.75;;;10.98;83.97
53932;BME280;39844;52.496;13.482;2023-03-23T05:23:15;100251.38;;;10.96;84.86
53932;BME280;39844;52.496;13.482;2023-03-23T05:25:40;100250.53;;;10.94;85.28
53932;BME280;39844;52.496;13.482;2023-03-23T05:28:08;100247.06;;;10.92;85.20
53932;BME280;39844;52.496;13.482;2023-03-23T05:30:34;100248.84;;;10.90;85.68
53932;BME280;39844;52.496;13.482;2023-03-23T05:32:59;100253.22;;;10.90;86.80
53932;BME280;39844;52.496;13.482;2023-03-23T05:35:25;100251.50;;;10.87;87.95
53932;BME280;39844;52.496;13.482;2023-03-23T05:37:50;100264.63;;;10.86;88.52
53932;BME280;39844;52.496;13.482;2023-03-23T05:40:15;100258.56;;;10.82;88.81
53932;BME280;39844;52.496;13.482;2023-03-23T05:42:41;100255.09;;;10.80;89.04
53932;BME280;39844;52.496;13.482;2023-03-23T05:45:08;100275.22;;;10.79;88.91
53932;BME280;39844;52.496;13.482;2023-03-23T05:47:34;100263.84;;;10.79;88.77
53932;BME280;39844;52.496;13.482;2023-03-23T05:49:59;100268.22;;;10.80;89.30
53932;BME280;39844;52.496;13.482;2023-03-23T05:52:25;100270.78;;;10.83;89.41
53932;BME280;39844;52.496;13.482;2023-03-23T05:54:50;100265.50;;;10.88;89.20
53932;BME280;39844;52.496;13.482;2023-03-23T05:57:16;100277.69;;;10.93;89.26
53932;BME280;39844;52.496;13.482;2023-03-23T05:59:41;100275.00;;;10.96;89.67
53932;BME280;39844;52.496;13.482;2023-03-23T06:02:07;100276.75;;;10.97;90.52
53932;BME280;39844;52.496;13.482;2023-03-23T06:04:32;100275.88;;;10.98;91.18
53932;BME280;39844;52.496;13.482;2023-03-23T06:06:57;100278.50;;;10.98;91.77
53932;BME280;39844;52.496;13.482;2023-03-23T06:09:22;100289.88;;;10.97;92.72
53932;BME280;39844;52.496;13.482;2023-03-23T06:11:48;100282.88;;;10.96;93.27
53932;BME280;39844;52.496;13.482;2023-03-23T06:14:13;100292.53;;;10.94;94.32
53932;BME280;39844;52.496;13.482;2023-03-23T06:16:38;100286.41;;;10.95;94.63
53932;BME280;39844;52.496;13.482;2023-03-23T06:19:04;100286.44;;;10.92;95.64
53932;BME280;39844;52.496;13.482;2023-03-23T06:21:32;100290.81;;;10.92;96.26
53932;BME280;39844;52.496;13.482;2023-03-23T06:23:57;100294.38;;;10.91;97.06
53932;BME280;39844;52.496;13.482;2023-03-23T06:26:27;100291.72;;;10.89;97.46
53932;BME280;39844;52.496;13.482;2023-03-23T06:28:53;100308.38;;;10.88;98.08
53932;BME280;39844;52.496;13.482;2023-03-23T06:31:18;100303.13;;;10.87;98.78
53932;BME280;39844;52.496;13.482;2023-03-23T06:33:43;100297.00;;;10.86;98.97
53932;BME280;39844;52.496;13.482;2023-03-23T06:36:09;100301.41;;;10.86;99.18
53932;BME280;39844;52.496;13.482;2023-03-23T06:38:34;100293.50;;;10.87;99.49
53932;BME280;39844;52.496;13.482;2023-03-23T06:40:59;100299.66;;;10.86;100.00
53932;BME280;39844;52.496;13.482;2023-03-23T06:43:25;100308.41;;;10.87;100.00
53932;BME280;39844;52.496;13.482;2023-03-23T06:45:50;100316.25;;;10.88;100.00
53932;BME280;39844;52.496;13.482;2023-03-23T06:48:15;100301.34;;;10.89;100.00
53932;BME280;39844;52.496;13.482;2023-03-23T06:50:45;100307.50;;;10.89;100.00
53932;BME280;39844;52.496;13.482;2023-03-23T06:53:10;100312.75;;;10.91;100.00
53932;BME280;39844;52.496;13.482;2023-03-23T06:55:36;100320.59;;;10.92;100.00
53932;BME280;39844;52.496;13.482;2023-03-23T06:58:01;100315.31;;;10.95;100.00
53932;BME280;39844;52.496;13.482;2023-03-23T07:00:27;100311.78;;;10.96;100.00
53932;BME280;39844;52.496;13.482;2023-03-23T07:02:52;100306.50;;;10.96;100.00
53932;BME280;39844;52.496;13.482;2023-03-23T07:05:17;100317.94;;;10.95;100.00
53932;BME280;39844;52.496;13.482;2023-03-23T07:07:42;100312.66;;;10.98;100.00
53932;BME280;39844;52.496;13.482;2023-03-23T07:10:09;100312.66;;;10.98;100.00
53932;BME280;39844;52.496;13.482;2023-03-23T07:12:35;100318.75;;;11.00;100.00
53932;BME280;39844;52.496;13.482;2023-03-23T07:15:00;100319.59;;;11.02;100.00
53932;BME280;39844;52.496;13.482;2023-03-23T07:17:26;100316.09;;;11.02;100.00
53932;BME280;39844;52.496;13.482;2023-03-23T07:19:51;100310.88;;;11.00;100.00
53932;BME280;39844;52.496;13.482;2023-03-23T07:22:16;100304.69;;;11.01;100.00
53932;BME280;39844;52.496;13.482;2023-03-23T07:24:41;100316.09;;;11.02;100.00
53932;BME280;39844;52.496;13.482;2023-03-23T07:27:07;100300.31;;;11.03;100.00
53932;BME280;39844;52.496;13.482;2023-03-23T07:29:32;100289.81;;;11.03;100.00
53932;BME280;39844;52.496;13.482;2023-03-23T07:31:57;100285.41;;;11.05;100.00
53932;BME280;39844;52.496;13.482;2023-03-23T07:34:23;100303.78;;;11.05;100.00
53932;BME280;39844;52.496;13.482;2023-03-23T07:36:48;100300.25;;;11.06;100.00
53932;BME280;39844;52.496;13.482;2023-03-23T07:39:14;100309.88;;;11.07;100.00
53932;BME280;39844;52.496;13.482;2023-03-23T07:41:39;100301.97;;;11.09;100.00
53932;BME280;39844;52.496;13.482;2023-03-23T07:44:05;100287.09;;;11.09;100.00
53932;BME280;39844;52.496;13.482;2023-03-23T07:46:31;100309.81;;;11.13;100.00
53932;BME280;39844;52.496;13.482;2023-03-23T07:48:57;100296.69;;;11.13;100.00
53932;BME280;39844;52.496;13.482;2023-03-23T07:51:23;100294.91;;;11.15;100.00
53932;BME280;39844;52.496;13.482;2023-03-23T07:53:48;100293.09;;;11.19;100.00
53932;BME280;39844;52.496;13.482;2023-03-23T07:56:14;100286.00;;;11.25;100.00
53932;BME280;39844;52.496;13.482;2023-03-23T07:58:40;100280.66;;;11.31;100.00
53932;BME280;39844;52.496;13.482;2023-03-23T08:01:06;100272.72;;;11.34;100.00
53932;BME280;39844;52.496;13.482;2023-03-23T08:03:31;100256.91;;;11.39;100.00
53932;BME280;39844;52.496;13.482;2023-03-23T08:05:58;100241.97;;;11.42;100.00
53932;BME280;39844;52.496;13.482;2023-03-23T08:08:23;100251.53;;;11.47;100.00
53932;BME280;39844;52.496;13.482;2023-03-23T08:10:48;100269.91;;;11.47;100.00
53932;BME280;39844;52.496;13.482;2023-03-23T08:13:13;100285.69;;;11.47;100.00
53932;BME280;39844;52.496;13.482;2023-03-23T08:15:39;100286.56;;;11.47;100.00
53932;BME280;39844;52.496;13.482;2023-03-23T08:18:04;100296.19;;;11.48;100.00
53932;BME280;39844;52.496;13.482;2023-03-23T08:20:29;100296.16;;;11.50;100.00
53932;BME280;39844;52.496;13.482;2023-03-23T08:22:56;100306.63;;;11.53;100.00
53932;BME280;39844;52.496;13.482;2023-03-23T08:25:22;100315.38;;;11.55;100.00
53932;BME280;39844;52.496;13.482;2023-03-23T08:27:47;100314.47;;;11.56;100.00
53932;BME280;39844;52.496;13.482;2023-03-23T08:33:16;100301.25;;;11.60;100.00
53932;BME280;39844;52.496;13.482;2023-03-23T08:35:41;100308.25;;;11.63;100.00
53932;BME280;39844;52.496;13.482;2023-03-23T08:38:07;100308.28;;;11.61;100.00
53932;BME280;39844;52.496;13.482;2023-03-23T08:40:32;100317.88;;;11.64;100.00
53932;BME280;39844;52.496;13.482;2023-03-23T08:42:57;100316.97;;;11.65;99.23
53932;BME280;39844;52.496;13.482;2023-03-23T08:45:24;100313.44;;;11.66;99.29
53932;BME280;39844;52.496;13.482;2023-03-23T08:47:50;100292.38;;;11.70;99.34
53932;BME280;39844;52.496;13.482;2023-03-23T08:50:16;100276.53;;;11.76;98.93
53932;BME280;39844;52.496;13.482;2023-03-23T08:52:42;100284.28;;;11.84;99.13
53932;BME280;39844;52.496;13.482;2023-03-23T08:55:07;100289.41;;;11.90;98.76
53932;BME280;39844;52.496;13.482;2023-03-23T08:57:33;100308.63;;;11.95;97.32
53932;BME280;39844;52.496;13.482;2023-03-23T08:59:58;100316.47;;;11.98;96.58
53932;BME280;39844;52.496;13.482;2023-03-23T09:02:23;100310.28;;;12.00;95.35
53932;BME280;39844;52.496;13.482;2023-03-23T09:04:49;100307.63;;;12.05;95.36
53932;BME280;39844;52.496;13.482;2023-03-23T09:07:14;100310.97;;;12.13;95.28
53932;BME280;39844;52.496;13.482;2023-03-23T09:09:40;100306.38;;;12.24;95.91
53932;BME280;39844;52.496;13.482;2023-03-23T09:12:07;100304.44;;;12.35;94.50
53932;BME280;39844;52.496;13.482;2023-03-23T09:14:32;100321.88;;;12.42;93.48
53932;BME280;39844;52.496;13.482;2023-03-23T09:16:58;100316.56;;;12.44;92.64
53932;BME280;39844;52.496;13.482;2023-03-23T09:19:23;100319.19;;;12.44;91.84
53932;BME280;39844;52.496;13.482;2023-03-23T09:21:48;100318.31;;;12.43;92.24
53932;BME280;39844;52.496;13.482;2023-03-23T09:24:14;100323.56;;;12.45;91.18
53932;BME280;39844;52.496;13.482;2023-03-23T09:26:39;100307.72;;;12.48;91.75
53932;BME280;39844;52.496;13.482;2023-03-23T09:29:05;100297.97;;;12.53;91.79
53932;BME280;39844;52.496;13.482;2023-03-23T09:31:30;100310.13;;;12.60;91.87
53932;BME280;39844;52.496;13.482;2023-03-23T09:33:55;100290.78;;;12.62;90.82
53932;BME280;39844;52.496;13.482;2023-03-23T09:36:21;100297.66;;;12.69;91.22
53932;BME280;39844;52.496;13.482;2023-03-23T09:38:47;100301.94;;;12.75;89.98
53932;BME280;39844;52.496;13.482;2023-03-23T09:41:26;100303.53;;;12.82;90.05
53932;BME280;39844;52.496;13.482;2023-03-23T09:46:49;100317.28;;;12.98;88.21
53932;BME280;39844;52.496;13.482;2023-03-23T09:49:19;100316.28;;;13.03;87.58
53932;BME280;39844;52.496;13.482;2023-03-23T09:52:07;100317.06;;;13.10;86.87
53932;BME280;39844;52.496;13.482;2023-03-23T09:54:38;100318.59;;;13.20;86.18
53932;BME280;39844;52.496;13.482;2023-03-23T09:57:11;100321.06;;;13.27;85.66
53932;BME280;39844;52.496;13.482;2023-03-23T09:59:46;100327.03;;;13.36;84.72
53932;BME280;39844;52.496;13.482;2023-03-23T10:02:49;100323.34;;;13.44;84.06
53932;BME280;39844;52.496;13.482;2023-03-23T10:05:30;100316.16;;;13.52;83.07
53932;BME280;39844;52.496;13.482;2023-03-23T10:07:55;100320.44;;;13.56;81.85
53932;BME280;39844;52.496;13.482;2023-03-23T10:10:26;100316.03;;;13.57;80.76
53932;BME280;39844;52.496;13.482;2023-03-23T10:13:08;100327.34;;;13.60;80.47
53932;BME280;39844;52.496;13.482;2023-03-23T10:15:38;100318.50;;;13.64;79.58
53932;BME280;39844;52.496;13.482;2023-03-23T10:18:12;100319.31;;;13.66;79.77
53932;BME280;39844;52.496;13.482;2023-03-23T10:25:50;100314.56;;;13.82;77.73
53932;BME280;39844;52.496;13.482;2023-03-23T10:28:23;100307.34;;;13.90;77.04
53932;BME280;39844;52.496;13.482;2023-03-23T10:30:55;100298.41;;;13.96;76.84
53932;BME280;39844;52.496;13.482;2023-03-23T10:33:38;100297.34;;;14.03;75.97
53932;BME280;39844;52.496;13.482;2023-03-23T10:41:28;100285.22;;;14.31;74.48
53932;BME280;39844;52.496;13.482;2023-03-23T10:43:53;100294.78;;;14.35;74.11
53932;BME280;39844;52.496;13.482;2023-03-23T10:47:05;100279.84;;;14.34;73.29
53932;BME280;39844;52.496;13.482;2023-03-23T10:49:08;100293.88;;;14.36;73.90
53932;BME280;39844;52.496;13.482;2023-03-23T10:51:37;100285.84;;;14.40;73.29
53932;BME280;39844;52.496;13.482;2023-03-23T10:54:05;100290.16;;;14.43;73.03
53932;BME280;39844;52.496;13.482;2023-03-23T10:56:42;100291.91;;;14.44;72.39
53932;BME280;39844;52.496;13.482;2023-03-23T10:59:18;100287.59;;;14.40;72.00
53932;BME280;39844;52.496;13.482;2023-03-23T11:01:45;100292.06;;;14.38;72.15
53932;BME280;39844;52.496;13.482;2023-03-23T11:04:13;100288.59;;;14.36;71.72
53932;BME280;39844;52.496;13.482;2023-03-23T11:06:48;100293.91;;;14.34;71.72
53932;BME280;39844;52.496;13.482;2023-03-23T11:09:17;100285.09;;;14.35;71.45
53932;BME280;39844;52.496;13.482;2023-03-23T11:11:50;100293.81;;;14.37;71.64
53932;BME280;39844;52.496;13.482;2023-03-23T11:14:25;100292.13;;;14.35;70.64
53932;BME280;39844;52.496;13.482;2023-03-23T11:16:52;100296.53;;;14.36;71.19
53932;BME280;39844;52.496;13.482;2023-03-23T11:19:27;100306.09;;;14.40;71.76
53932;BME280;39844;52.496;13.482;2023-03-23T11:22:20;100307.84;;;14.41;70.83
53932;BME280;39844;52.496;13.482;2023-03-23T11:24:47;100312.09;;;14.46;71.15
53932;BME280;39844;52.496;13.482;2023-03-23T11:27:14;100308.38;;;14.53;71.36
53932;BME280;39844;52.496;13.482;2023-03-23T11:32:16;100300.16;;;14.64;70.25
53932;BME280;39844;52.496;13.482;2023-03-23T11:34:45;100308.84;;;14.69;69.35
53932;BME280;39844;52.496;13.482;2023-03-23T11:37:17;100306.19;;;14.69;68.17
53932;BME280;39844;52.496;13.482;2023-03-23T11:42:17;100314.72;;;14.79;68.18
53932;BME280;39844;52.496;13.482;2023-03-23T11:44:43;100315.41;;;14.85;68.60
53932;BME280;39844;52.496;13.482;2023-03-23T11:53:10;100309.34;;;15.12;67.28
53932;BME280;39844;52.496;13.482;2023-03-23T11:58:12;100318.59;;;15.27;66.42
53932;BME280;39844;52.496;13.482;2023-03-23T12:00:56;100319.34;;;15.31;65.99
53932;BME280;39844;52.496;13.482;2023-03-23T12:06:19;100320.22;;;15.33;65.24
53932;BME280;39844;52.496;13.482;2023-03-23T12:12:07;100322.47;;;15.45;65.18
53932;BME280;39844;52.496;13.482;2023-03-23T12:15:11;100329.44;;;15.49;64.85
53932;BME280;39844;52.496;13.482;2023-03-23T12:22:57;100320.69;;;15.47;63.64
53932;BME280;39844;52.496;13.482;2023-03-23T12:31:02;100315.38;;;15.47;63.53
53932;BME280;39844;52.496;13.482;2023-03-23T12:33:35;100311.13;;;15.41;63.78
53932;BME280;39844;52.496;13.482;2023-03-23T12:42:00;100314.72;;;15.39;63.32
53932;BME280;39844;52.496;13.482;2023-03-23T12:44:41;100299.72;;;15.39;62.57
53932;BME280;39844;52.496;13.482;2023-03-23T12:50:07;100294.38;;;15.41;62.34
53932;BME280;39844;52.496;13.482;2023-03-23T12:52:41;100291.78;;;15.39;62.60
53932;BME280;39844;52.496;13.482;2023-03-23T12:55:25;100283.75;;;15.42;62.55
53932;BME280;39844;52.496;13.482;2023-03-23T12:57:57;100262.53;;;15.44;62.76
53932;BME280;39844;52.496;13.482;2023-03-23T13:00:31;100246.34;;;15.56;62.63
53932;BME280;39844;52.496;13.482;2023-03-23T13:03:20;100270.38;;;15.76;62.40
53932;BME280;39844;52.496;13.482;2023-03-23T13:08:44;100289.78;;;16.03;60.96
53932;BME280;39844;52.496;13.482;2023-03-23T13:11:19;100294.63;;;16.16;59.95
53932;BME280;39844;52.496;13.482;2023-03-23T13:13:49;100283.41;;;16.34;60.08
53932;BME280;39844;52.496;13.482;2023-03-23T13:19:06;100285.31;;;16.56;57.92
53932;BME280;39844;52.496;13.482;2023-03-23T13:21:53;100284.34;;;16.58;58.12
53932;BME280;39844;52.496;13.482;2023-03-23T13:24:24;100282.47;;;16.62;57.71
53932;BME280;39844;52.496;13.482;2023-03-23T13:26:51;100284.84;;;16.69;57.47
53932;BME280;39844;52.496;13.482;2023-03-23T13:29:20;100281.84;;;16.78;56.87
53932;BME280;39844;52.496;13.482;2023-03-23T13:31:47;100270.41;;;16.78;57.42
53932;BME280;39844;52.496;13.482;2023-03-23T13:34:21;100271.03;;;16.84;56.81
53932;BME280;39844;52.496;13.482;2023-03-23T13:36:56;100257.59;;;16.89;56.71
53932;BME280;39844;52.496;13.482;2023-03-23T13:39:47;100261.03;;;16.91;56.39
53932;BME280;39844;52.496;13.482;2023-03-23T13:55:31;100238.69;;;17.21;54.49
53932;BME280;39844;52.496;13.482;2023-03-23T14:03:13;100237.19;;;17.14;51.99
53932;BME280;39844;52.496;13.482;2023-03-23T14:10:50;100243.44;;;16.90;54.21
53932;BME280;39844;52.496;13.482;2023-03-23T14:13:42;100262.56;;;16.98;54.01
53932;BME280;39844;52.496;13.482;2023-03-23T14:16:17;100258.09;;;16.98;52.93
53932;BME280;39844;52.496;13.482;2023-03-23T14:18:54;100249.53;;;17.15;51.47
53932;BME280;39844;52.496;13.482;2023-03-23T14:21:40;100259.53;;;17.30;51.50
53932;BME280;39844;52.496;13.482;2023-03-23T14:24:19;100253.56;;;17.25;51.10
53932;BME280;39844;52.496;13.482;2023-03-23T14:26:45;100249.75;;;17.09;52.14
53932;BME280;39844;52.496;13.482;2023-03-23T14:29:12;100253.94;;;16.93;52.94
53932;BME280;39844;52.496;13.482;2023-03-23T14:31:39;100255.88;;;16.88;53.54
53932;BME280;39844;52.496;13.482;2023-03-23T14:34:13;100266.88;;;16.77;53.62
53932;BME280;39844;52.496;13.482;2023-03-23T14:36:39;100250.59;;;16.63;54.15
53932;BME280;39844;52.496;13.482;2023-03-23T14:41:39;100257.72;;;16.36;54.95